sensor_id;sensor_type;location;lat;lon;timestamp;P1;durP1;ratioP1;P2;durP2;ratioP2
9392;SDS011;4736;52.508;13.422;2023-11-19T00:01:23;10.93;;;10.13;;
9392;SDS011;4736;52.508;13.422;2023-11-19T00:04:28;11.23;;;10.40;;
9392;SDS011;4736;52.508;13.422;2023-11-19T00:07:31;11.53;;;10.63;;
9392;SDS011;4736;52.508;13.422;2023-11-19T00:10:36;11.37;;;10.47;;
9392;SDS011;4736;52.508;13.422;2023-11-19T00:13:39;10.73;;;9.90;;
9392;SDS011;4736;52.508;13.422;2023-11-19T00:16:42;11.10;;;10.20;;
9392;SDS011;4736;52.508;13.422;2023-11-19T00:19:47;11.27;;;10.30;;
9392;SDS011;4736;52.508;13.422;2023-11-19T00:23:04;11.90;;;10.13;;
9392;SDS011;4736;52.508;13.422;2023-11-19T00:26:07;13.80;;;10.27;;
9392;SDS011;4736;52.508;13.422;2023-11-19T00:29:11;10.83;;;9.83;;
9392;SDS011;4736;52.508;13.422;2023-11-19T00:32:15;11.00;;;10.10;;
9392;SDS011;4736;52.508;13.422;2023-11-19T00:35:20;10.80;;;9.90;;
9392;SDS011;4736;52.508;13.422;2023-11-19T00:38:23;11.37;;;10.47;;
9392;SDS011;4736;52.508;13.422;2023-11-19T00:41:26;11.90;;;10.80;;
9392;SDS011;4736;52.508;13.422;2023-11-19T00:44:29;12.60;;;11.50;;
9392;SDS011;4736;52.508;13.422;2023-11-19T00:47:34;10.03;;;9.20;;
9392;SDS011;4736;52.508;13.422;2023-11-19T00:50:39;10.40;;;9.40;;
9392;SDS011;4736;52.508;13.422;2023-11-19T00:53:45;11.00;;;9.83;;
9392;SDS011;4736;52.508;13.422;2023-11-19T00:56:48;9.80;;;8.97;;
9392;SDS011;4736;52.508;13.422;2023-11-19T00:59:53;11.37;;;10.10;;
9392;SDS011;4736;52.508;13.422;2023-11-19T01:02:56;10.20;;;9.40;;
9392;SDS011;4736;52.508;13.422;2023-11-19T01:06:03;10.83;;;9.47;;
9392;SDS011;4736;52.508;13.422;2023-11-19T01:09:07;9.83;;;9.03;;
9392;SDS011;4736;52.508;13.422;2023-11-19T01:12:11;9.13;;;8.50;;
9392;SDS011;4736;52.508;13.422;2023-11-19T01:15:14;10.47;;;9.30;;
9392;SDS011;4736;52.508;13.422;2023-11-19T01:18:21;9.77;;;9.17;;
9392;SDS011;4736;52.508;13.422;2023-11-19T01:21:25;9.40;;;8.90;;
9392;SDS011;4736;52.508;13.422;2023-11-19T01:24:28;9.73;;;8.83;;
9392;SDS011;4736;52.508;13.422;2023-11-19T01:27:32;8.90;;;8.40;;
9392;SDS011;4736;52.508;13.422;2023-11-19T01:30:36;9.83;;;9.03;;
9392;SDS011;4736;52.508;13.422;2023-11-19T01:33:39;9.30;;;8.60;;
9392;SDS011;4736;52.508;13.422;2023-11-19T01:36:44;9.50;;;8.80;;
9392;SDS011;4736;52.508;13.422;2023-11-19T01:39:50;9.60;;;8.90;;
9392;SDS011;4736;52.508;13.422;2023-11-19T01:42:56;9.67;;;8.87;;
9392;SDS011;4736;52.508;13.422;2023-11-19T01:45:59;9.17;;;8.47;;
9392;SDS011;4736;52.508;13.422;2023-11-19T01:49:03;8.97;;;8.30;;
9392;SDS011;4736;52.508;13.422;2023-11-19T01:52:09;9.33;;;8.70;;
9392;SDS011;4736;52.508;13.422;2023-11-19T01:55:12;8.73;;;8.23;;
9392;SDS011;4736;52.508;13.422;2023-11-19T01:58:16;8.60;;;8.10;;
9392;SDS011;4736;52.508;13.422;2023-11-19T02:01:19;9.07;;;8.47;;
9392;SDS011;4736;52.508;13.422;2023-11-19T02:04:23;9.23;;;8.53;;
9392;SDS011;4736;52.508;13.422;2023-11-19T02:07:28;9.27;;;8.63;;
9392;SDS011;4736;52.508;13.422;2023-11-19T02:10:32;10.50;;;9.40;;
9392;SDS011;4736;52.508;13.422;2023-11-19T02:13:36;8.77;;;8.17;;
9392;SDS011;4736;52.508;13.422;2023-11-19T02:16:41;8.47;;;7.87;;
9392;SDS011;4736;52.508;13.422;2023-11-19T02:19:44;10.00;;;9.10;;
9392;SDS011;4736;52.508;13.422;2023-11-19T02:22:48;9.90;;;9.10;;
9392;SDS011;4736;52.508;13.422;2023-11-19T02:26:02;9.47;;;8.57;;
9392;SDS011;4736;52.508;13.422;2023-11-19T02:29:17;9.83;;;8.93;;
9392;SDS011;4736;52.508;13.422;2023-11-19T02:32:24;10.13;;;9.23;;
9392;SDS011;4736;52.508;13.422;2023-11-19T02:35:32;9.40;;;8.73;;
9392;SDS011;4736;52.508;13.422;2023-11-19T02:38:36;10.03;;;9.07;;
9392;SDS011;4736;52.508;13.422;2023-11-19T02:41:39;8.70;;;8.10;;
9392;SDS011;4736;52.508;13.422;2023-11-19T02:44:45;9.30;;;8.60;;
9392;SDS011;4736;52.508;13.422;2023-11-19T02:47:49;9.00;;;8.30;;
9392;SDS011;4736;52.508;13.422;2023-11-19T02:50:53;8.13;;;7.53;;
9392;SDS011;4736;52.508;13.422;2023-11-19T02:53:56;8.07;;;7.57;;
9392;SDS011;4736;52.508;13.422;2023-11-19T02:56:59;8.73;;;8.13;;
9392;SDS011;4736;52.508;13.422;2023-11-19T03:00:07;8.40;;;7.73;;
9392;SDS011;4736;52.508;13.422;2023-11-19T03:03:13;7.63;;;7.07;;
9392;SDS011;4736;52.508;13.422;2023-11-19T03:06:22;7.50;;;7.03;;
9392;SDS011;4736;52.508;13.422;2023-11-19T03:09:25;7.07;;;6.70;;
9392;SDS011;4736;52.508;13.422;2023-11-19T03:12:29;6.93;;;6.63;;
9392;SDS011;4736;52.508;13.422;2023-11-19T03:15:33;7.10;;;6.80;;
9392;SDS011;4736;52.508;13.422;2023-11-19T03:18:36;7.37;;;6.87;;
9392;SDS011;4736;52.508;13.422;2023-11-19T03:21:40;7.77;;;7.37;;
9392;SDS011;4736;52.508;13.422;2023-11-19T03:24:43;8.10;;;7.63;;
9392;SDS011;4736;52.508;13.422;2023-11-19T03:27:46;7.00;;;6.60;;
9392;SDS011;4736;52.508;13.422;2023-11-19T03:30:51;7.53;;;7.13;;
9392;SDS011;4736;52.508;13.422;2023-11-19T03:33:54;7.33;;;6.93;;
9392;SDS011;4736;52.508;13.422;2023-11-19T03:37:00;7.13;;;6.73;;
9392;SDS011;4736;52.508;13.422;2023-11-19T03:40:05;8.47;;;7.83;;
9392;SDS011;4736;52.508;13.422;2023-11-19T03:43:09;8.80;;;8.27;;
9392;SDS011;4736;52.508;13.422;2023-11-19T03:46:19;9.33;;;8.53;;
9392;SDS011;4736;52.508;13.422;2023-11-19T03:49:23;8.23;;;7.63;;
9392;SDS011;4736;52.508;13.422;2023-11-19T03:52:26;8.67;;;8.17;;
9392;SDS011;4736;52.508;13.422;2023-11-19T03:55:29;8.23;;;7.60;;
9392;SDS011;4736;52.508;13.422;2023-11-19T03:58:34;9.17;;;8.40;;
9392;SDS011;4736;52.508;13.422;2023-11-19T04:01:38;8.37;;;7.77;;
9392;SDS011;4736;52.508;13.422;2023-11-19T04:04:42;8.90;;;8.20;;
9392;SDS011;4736;52.508;13.422;2023-11-19T04:07:45;9.43;;;8.73;;
9392;SDS011;4736;52.508;13.422;2023-11-19T04:10:49;9.93;;;9.03;;
9392;SDS011;4736;52.508;13.422;2023-11-19T04:13:57;9.63;;;8.80;;
9392;SDS011;4736;52.508;13.422;2023-11-19T04:17:02;10.27;;;9.43;;
9392;SDS011;4736;52.508;13.422;2023-11-19T04:20:06;10.57;;;9.73;;
9392;SDS011;4736;52.508;13.422;2023-11-19T04:23:13;9.67;;;8.83;;
9392;SDS011;4736;52.508;13.422;2023-11-19T04:26:17;10.37;;;9.57;;
9392;SDS011;4736;52.508;13.422;2023-11-19T04:29:20;10.27;;;9.47;;
9392;SDS011;4736;52.508;13.422;2023-11-19T04:32:24;10.07;;;9.27;;
9392;SDS011;4736;52.508;13.422;2023-11-19T04:35:28;10.43;;;9.63;;
9392;SDS011;4736;52.508;13.422;2023-11-19T04:38:31;10.23;;;9.43;;
9392;SDS011;4736;52.508;13.422;2023-11-19T04:41:34;10.27;;;9.30;;
9392;SDS011;4736;52.508;13.422;2023-11-19T04:44:38;9.53;;;8.83;;
9392;SDS011;4736;52.508;13.422;2023-11-19T04:47:42;9.57;;;8.77;;
9392;SDS011;4736;52.508;13.422;2023-11-19T04:50:45;10.70;;;9.90;;
9392;SDS011;4736;52.508;13.422;2023-11-19T04:53:48;10.37;;;9.57;;
9392;SDS011;4736;52.508;13.422;2023-11-19T04:56:51;11.27;;;10.37;;
9392;SDS011;4736;52.508;13.422;2023-11-19T04:59:55;10.93;;;10.03;;
9392;SDS011;4736;52.508;13.422;2023-11-19T05:02:59;11.33;;;10.33;;
9392;SDS011;4736;52.508;13.422;2023-11-19T05:06:03;10.53;;;9.63;;
9392;SDS011;4736;52.508;13.422;2023-11-19T05:09:06;11.50;;;10.60;;
9392;SDS011;4736;52.508;13.422;2023-11-19T05:12:09;10.90;;;9.93;;
9392;SDS011;4736;52.508;13.422;2023-11-19T05:15:13;11.53;;;10.70;;
9392;SDS011;4736;52.508;13.422;2023-11-19T05:18:17;11.00;;;10.10;;
9392;SDS011;4736;52.508;13.422;2023-11-19T05:21:21;11.57;;;10.67;;
9392;SDS011;4736;52.508;13.422;2023-11-19T05:24:25;12.07;;;11.07;;
9392;SDS011;4736;52.508;13.422;2023-11-19T05:27:28;12.17;;;11.07;;
9392;SDS011;4736;52.508;13.422;2023-11-19T05:30:31;11.87;;;10.77;;
9392;SDS011;4736;52.508;13.422;2023-11-19T05:33:35;11.83;;;10.80;;
9392;SDS011;4736;52.508;13.422;2023-11-19T05:36:39;11.37;;;10.47;;
9392;SDS011;4736;52.508;13.422;2023-11-19T05:39:42;10.67;;;9.77;;
9392;SDS011;4736;52.508;13.422;2023-11-19T05:42:45;10.97;;;10.13;;
9392;SDS011;4736;52.508;13.422;2023-11-19T05:45:48;11.50;;;10.60;;
9392;SDS011;4736;52.508;13.422;2023-11-19T05:48:52;11.87;;;10.77;;
9392;SDS011;4736;52.508;13.422;2023-11-19T05:51:55;11.30;;;10.40;;
9392;SDS011;4736;52.508;13.422;2023-11-19T05:55:01;10.63;;;9.63;;
9392;SDS011;4736;52.508;13.422;2023-11-19T05:58:05;10.70;;;9.80;;
9392;SDS011;4736;52.508;13.422;2023-11-19T06:01:12;10.93;;;10.03;;
9392;SDS011;4736;52.508;13.422;2023-11-19T06:04:17;11.13;;;10.33;;
9392;SDS011;4736;52.508;13.422;2023-11-19T06:07:20;11.17;;;10.30;;
9392;SDS011;4736;52.508;13.422;2023-11-19T06:10:23;11.13;;;10.33;;
9392;SDS011;4736;52.508;13.422;2023-11-19T06:13:30;11.17;;;10.27;;
9392;SDS011;4736;52.508;13.422;2023-11-19T06:16:34;10.53;;;9.83;;
9392;SDS011;4736;52.508;13.422;2023-11-19T06:19:39;11.17;;;10.00;;
9392;SDS011;4736;52.508;13.422;2023-11-19T06:22:42;10.57;;;9.67;;
9392;SDS011;4736;52.508;13.422;2023-11-19T06:25:47;9.57;;;8.97;;
9392;SDS011;4736;52.508;13.422;2023-11-19T06:28:50;10.50;;;9.70;;
9392;SDS011;4736;52.508;13.422;2023-11-19T06:31:53;11.17;;;10.30;;
9392;SDS011;4736;52.508;13.422;2023-11-19T06:34:57;10.10;;;9.40;;
9392;SDS011;4736;52.508;13.422;2023-11-19T06:38:00;9.80;;;9.17;;
9392;SDS011;4736;52.508;13.422;2023-11-19T06:41:06;9.97;;;9.27;;
9392;SDS011;4736;52.508;13.422;2023-11-19T06:44:11;10.07;;;9.27;;
9392;SDS011;4736;52.508;13.422;2023-11-19T06:47:14;10.17;;;9.27;;
9392;SDS011;4736;52.508;13.422;2023-11-19T06:50:18;9.80;;;8.97;;
9392;SDS011;4736;52.508;13.422;2023-11-19T06:53:22;10.17;;;9.27;;
9392;SDS011;4736;52.508;13.422;2023-11-19T06:56:26;10.90;;;10.00;;
9392;SDS011;4736;52.508;13.422;2023-11-19T06:59:29;10.60;;;9.80;;
9392;SDS011;4736;52.508;13.422;2023-11-19T07:02:33;10.70;;;9.80;;
9392;SDS011;4736;52.508;13.422;2023-11-19T07:05:37;9.23;;;8.53;;
9392;SDS011;4736;52.508;13.422;2023-11-19T07:08:41;10.23;;;9.43;;
9392;SDS011;4736;52.508;13.422;2023-11-19T07:11:46;10.63;;;9.83;;
9392;SDS011;4736;52.508;13.422;2023-11-19T07:14:53;10.10;;;9.20;;
9392;SDS011;4736;52.508;13.422;2023-11-19T07:17:57;10.20;;;9.50;;
9392;SDS011;4736;52.508;13.422;2023-11-19T07:21:05;10.30;;;9.50;;
9392;SDS011;4736;52.508;13.422;2023-11-19T07:24:11;9.83;;;9.03;;
9392;SDS011;4736;52.508;13.422;2023-11-19T07:27:15;9.63;;;9.03;;
9392;SDS011;4736;52.508;13.422;2023-11-19T07:30:18;8.73;;;8.20;;
9392;SDS011;4736;52.508;13.422;2023-11-19T07:33:22;9.73;;;9.10;;
9392;SDS011;4736;52.508;13.422;2023-11-19T07:36:26;9.40;;;8.80;;
9392;SDS011;4736;52.508;13.422;2023-11-19T07:39:30;9.50;;;8.80;;
9392;SDS011;4736;52.508;13.422;2023-11-19T07:42:33;9.70;;;8.90;;
9392;SDS011;4736;52.508;13.422;2023-11-19T07:45:37;9.90;;;9.13;;
9392;SDS011;4736;52.508;13.422;2023-11-19T07:48:40;9.20;;;8.60;;
9392;SDS011;4736;52.508;13.422;2023-11-19T07:51:45;11.87;;;10.87;;
9392;SDS011;4736;52.508;13.422;2023-11-19T07:54:48;10.13;;;9.33;;
9392;SDS011;4736;52.508;13.422;2023-11-19T07:57:51;10.67;;;9.83;;
9392;SDS011;4736;52.508;13.422;2023-11-19T08:00:54;10.70;;;9.90;;
9392;SDS011;4736;52.508;13.422;2023-11-19T08:03:58;10.47;;;9.67;;
9392;SDS011;4736;52.508;13.422;2023-11-19T08:07:04;10.80;;;9.80;;
9392;SDS011;4736;52.508;13.422;2023-11-19T08:10:07;10.40;;;9.57;;
9392;SDS011;4736;52.508;13.422;2023-11-19T08:13:12;10.10;;;9.40;;
9392;SDS011;4736;52.508;13.422;2023-11-19T08:16:15;10.93;;;10.03;;
9392;SDS011;4736;52.508;13.422;2023-11-19T08:19:18;11.80;;;10.80;;
9392;SDS011;4736;52.508;13.422;2023-11-19T08:22:23;11.03;;;10.10;;
9392;SDS011;4736;52.508;13.422;2023-11-19T08:25:26;10.23;;;9.43;;
9392;SDS011;4736;52.508;13.422;2023-11-19T08:28:29;10.40;;;9.53;;
9392;SDS011;4736;52.508;13.422;2023-11-19T08:31:35;11.17;;;10.37;;
9392;SDS011;4736;52.508;13.422;2023-11-19T08:34:38;11.50;;;10.60;;
9392;SDS011;4736;52.508;13.422;2023-11-19T08:37:42;11.47;;;10.70;;
9392;SDS011;4736;52.508;13.422;2023-11-19T08:40:47;11.73;;;10.73;;
9392;SDS011;4736;52.508;13.422;2023-11-19T08:43:50;11.60;;;10.60;;
9392;SDS011;4736;52.508;13.422;2023-11-19T08:46:54;12.17;;;11.17;;
9392;SDS011;4736;52.508;13.422;2023-11-19T08:49:57;11.67;;;10.73;;
9392;SDS011;4736;52.508;13.422;2023-11-19T08:53:04;10.50;;;9.70;;
9392;SDS011;4736;52.508;13.422;2023-11-19T08:56:08;11.23;;;10.33;;
9392;SDS011;4736;52.508;13.422;2023-11-19T08:59:12;10.80;;;10.10;;
9392;SDS011;4736;52.508;13.422;2023-11-19T09:02:18;10.47;;;9.67;;
9392;SDS011;4736;52.508;13.422;2023-11-19T09:05:22;12.80;;;11.70;;
9392;SDS011;4736;52.508;13.422;2023-11-19T09:08:26;12.77;;;11.60;;
9392;SDS011;4736;52.508;13.422;2023-11-19T09:11:29;13.20;;;11.97;;
9392;SDS011;4736;52.508;13.422;2023-11-19T09:14:32;11.63;;;10.67;;
9392;SDS011;4736;52.508;13.422;2023-11-19T09:17:36;13.87;;;11.90;;
9392;SDS011;4736;52.508;13.422;2023-11-19T09:20:39;11.93;;;10.83;;
9392;SDS011;4736;52.508;13.422;2023-11-19T09:23:44;12.57;;;11.20;;
9392;SDS011;4736;52.508;13.422;2023-11-19T09:26:48;12.47;;;11.27;;
9392;SDS011;4736;52.508;13.422;2023-11-19T09:29:51;11.10;;;10.20;;
9392;SDS011;4736;52.508;13.422;2023-11-19T09:32:59;9.20;;;8.53;;
9392;SDS011;4736;52.508;13.422;2023-11-19T09:36:02;10.03;;;9.13;;
9392;SDS011;4736;52.508;13.422;2023-11-19T09:39:08;8.70;;;8.00;;
9392;SDS011;4736;52.508;13.422;2023-11-19T09:42:12;9.03;;;8.37;;
9392;SDS011;4736;52.508;13.422;2023-11-19T09:45:16;9.37;;;8.60;;
9392;SDS011;4736;52.508;13.422;2023-11-19T09:48:20;7.67;;;7.27;;
9392;SDS011;4736;52.508;13.422;2023-11-19T09:51:23;8.47;;;7.87;;
9392;SDS011;4736;52.508;13.422;2023-11-19T09:54:28;8.80;;;8.20;;
9392;SDS011;4736;52.508;13.422;2023-11-19T09:57:32;9.20;;;8.37;;
9392;SDS011;4736;52.508;13.422;2023-11-19T10:00:39;8.43;;;7.70;;
9392;SDS011;4736;52.508;13.422;2023-11-19T10:03:43;8.00;;;7.30;;
9392;SDS011;4736;52.508;13.422;2023-11-19T10:06:50;8.43;;;7.63;;
9392;SDS011;4736;52.508;13.422;2023-11-19T10:10:00;7.03;;;6.53;;
9392;SDS011;4736;52.508;13.422;2023-11-19T10:13:06;6.70;;;6.30;;
9392;SDS011;4736;52.508;13.422;2023-11-19T10:16:11;7.70;;;7.13;;
9392;SDS011;4736;52.508;13.422;2023-11-19T10:19:18;7.27;;;6.43;;
9392;SDS011;4736;52.508;13.422;2023-11-19T10:22:22;6.10;;;5.60;;
9392;SDS011;4736;52.508;13.422;2023-11-19T10:25:28;7.00;;;5.53;;
9392;SDS011;4736;52.508;13.422;2023-11-19T10:28:37;6.03;;;5.53;;
9392;SDS011;4736;52.508;13.422;2023-11-19T10:31:43;5.50;;;5.13;;
9392;SDS011;4736;52.508;13.422;2023-11-19T10:35:19;5.37;;;4.97;;
9392;SDS011;4736;52.508;13.422;2023-11-19T10:38:22;5.37;;;4.87;;
9392;SDS011;4736;52.508;13.422;2023-11-19T10:41:28;6.33;;;5.70;;
9392;SDS011;4736;52.508;13.422;2023-11-19T10:44:32;5.23;;;4.87;;
9392;SDS011;4736;52.508;13.422;2023-11-19T10:47:40;5.30;;;4.80;;
9392;SDS011;4736;52.508;13.422;2023-11-19T10:50:44;5.53;;;5.13;;
9392;SDS011;4736;52.508;13.422;2023-11-19T10:53:51;5.87;;;4.97;;
9392;SDS011;4736;52.508;13.422;2023-11-19T10:57:02;9.83;;;4.57;;
9392;SDS011;4736;52.508;13.422;2023-11-19T11:00:09;4.67;;;4.27;;
9392;SDS011;4736;52.508;13.422;2023-11-19T11:03:16;5.13;;;4.60;;
9392;SDS011;4736;52.508;13.422;2023-11-19T11:06:21;8.23;;;4.57;;
9392;SDS011;4736;52.508;13.422;2023-11-19T11:09:25;7.43;;;4.70;;
9392;SDS011;4736;52.508;13.422;2023-11-19T11:12:30;9.10;;;5.10;;
9392;SDS011;4736;52.508;13.422;2023-11-19T11:15:37;7.47;;;4.63;;
9392;SDS011;4736;52.508;13.422;2023-11-19T11:18:43;6.57;;;4.47;;
9392;SDS011;4736;52.508;13.422;2023-11-19T11:21:51;9.70;;;5.30;;
9392;SDS011;4736;52.508;13.422;2023-11-19T11:25:00;10.63;;;4.87;;
9392;SDS011;4736;52.508;13.422;2023-11-19T11:28:24;7.97;;;4.50;;
9392;SDS011;4736;52.508;13.422;2023-11-19T11:31:36;8.87;;;4.63;;
9392;SDS011;4736;52.508;13.422;2023-11-19T11:34:49;9.70;;;4.43;;
9392;SDS011;4736;52.508;13.422;2023-11-19T11:38:03;12.37;;;5.03;;
9392;SDS011;4736;52.508;13.422;2023-11-19T11:41:15;10.73;;;5.37;;
9392;SDS011;4736;52.508;13.422;2023-11-19T11:44:33;8.70;;;4.83;;
9392;SDS011;4736;52.508;13.422;2023-11-19T11:48:09;9.53;;;4.73;;
9392;SDS011;4736;52.508;13.422;2023-11-19T11:51:17;10.53;;;4.87;;
9392;SDS011;4736;52.508;13.422;2023-11-19T11:54:27;10.27;;;5.47;;
9392;SDS011;4736;52.508;13.422;2023-11-19T11:57:35;8.60;;;4.73;;
9392;SDS011;4736;52.508;13.422;2023-11-19T12:00:41;9.57;;;5.23;;
9392;SDS011;4736;52.508;13.422;2023-11-19T12:03:44;8.20;;;4.50;;
9392;SDS011;4736;52.508;13.422;2023-11-19T12:07:02;13.00;;;5.37;;
9392;SDS011;4736;52.508;13.422;2023-11-19T12:10:07;13.27;;;6.07;;
9392;SDS011;4736;52.508;13.422;2023-11-19T12:13:13;17.73;;;5.77;;
9392;SDS011;4736;52.508;13.422;2023-11-19T12:16:19;14.27;;;5.37;;
9392;SDS011;4736;52.508;13.422;2023-11-19T12:19:22;9.80;;;5.47;;
9392;SDS011;4736;52.508;13.422;2023-11-19T12:22:26;12.57;;;5.80;;
9392;SDS011;4736;52.508;13.422;2023-11-19T12:25:29;14.33;;;5.67;;
9392;SDS011;4736;52.508;13.422;2023-11-19T12:28:37;15.67;;;5.90;;
9392;SDS011;4736;52.508;13.422;2023-11-19T12:31:53;12.90;;;6.17;;
9392;SDS011;4736;52.508;13.422;2023-11-19T12:35:14;14.17;;;5.73;;
9392;SDS011;4736;52.508;13.422;2023-11-19T12:38:20;11.17;;;5.60;;
9392;SDS011;4736;52.508;13.422;2023-11-19T12:41:24;14.73;;;6.20;;
9392;SDS011;4736;52.508;13.422;2023-11-19T12:44:27;20.63;;;6.20;;
9392;SDS011;4736;52.508;13.422;2023-11-19T12:47:32;19.30;;;5.87;;
9392;SDS011;4736;52.508;13.422;2023-11-19T12:50:51;18.40;;;5.90;;
9392;SDS011;4736;52.508;13.422;2023-11-19T12:53:55;13.50;;;6.33;;
9392;SDS011;4736;52.508;13.422;2023-11-19T12:56:59;11.33;;;6.03;;
9392;SDS011;4736;52.508;13.422;2023-11-19T13:00:03;16.27;;;5.87;;
9392;SDS011;4736;52.508;13.422;2023-11-19T13:03:08;16.00;;;6.17;;
9392;SDS011;4736;52.508;13.422;2023-11-19T13:06:12;9.90;;;5.80;;
9392;SDS011;4736;52.508;13.422;2023-11-19T13:09:23;15.33;;;6.20;;
9392;SDS011;4736;52.508;13.422;2023-11-19T13:12:27;15.47;;;6.00;;
9392;SDS011;4736;52.508;13.422;2023-11-19T13:15:30;19.17;;;6.20;;
9392;SDS011;4736;52.508;13.422;2023-11-19T13:18:35;13.77;;;5.57;;
9392;SDS011;4736;52.508;13.422;2023-11-19T13:21:41;21.03;;;6.17;;
9392;SDS011;4736;52.508;13.422;2023-11-19T13:24:47;13.63;;;6.23;;
9392;SDS011;4736;52.508;13.422;2023-11-19T13:27:50;19.03;;;6.57;;
9392;SDS011;4736;52.508;13.422;2023-11-19T13:30:54;14.27;;;6.80;;
9392;SDS011;4736;52.508;13.422;2023-11-19T13:33:59;20.30;;;6.57;;
9392;SDS011;4736;52.508;13.422;2023-11-19T13:37:02;12.77;;;5.63;;
9392;SDS011;4736;52.508;13.422;2023-11-19T13:40:06;12.97;;;5.73;;
9392;SDS011;4736;52.508;13.422;2023-11-19T13:43:11;17.70;;;5.87;;
9392;SDS011;4736;52.508;13.422;2023-11-19T13:46:14;18.83;;;5.90;;
9392;SDS011;4736;52.508;13.422;2023-11-19T13:49:18;13.10;;;5.67;;
9392;SDS011;4736;52.508;13.422;2023-11-19T13:52:24;13.90;;;6.00;;
9392;SDS011;4736;52.508;13.422;2023-11-19T13:55:27;23.70;;;6.67;;
9392;SDS011;4736;52.508;13.422;2023-11-19T13:58:30;17.80;;;6.17;;
9392;SDS011;4736;52.508;13.422;2023-11-19T14:01:33;18.07;;;5.50;;
9392;SDS011;4736;52.508;13.422;2023-11-19T14:04:38;20.13;;;6.53;;
9392;SDS011;4736;52.508;13.422;2023-11-19T14:07:41;16.73;;;6.43;;
9392;SDS011;4736;52.508;13.422;2023-11-19T14:10:44;19.17;;;6.63;;
9392;SDS011;4736;52.508;13.422;2023-11-19T14:13:47;19.80;;;7.13;;
9392;SDS011;4736;52.508;13.422;2023-11-19T14:16:51;23.03;;;7.63;;
9392;SDS011;4736;52.508;13.422;2023-11-19T14:19:56;15.17;;;6.50;;
9392;SDS011;4736;52.508;13.422;2023-11-19T14:22:59;16.93;;;6.67;;
9392;SDS011;4736;52.508;13.422;2023-11-19T14:26:02;18.33;;;6.80;;
9392;SDS011;4736;52.508;13.422;2023-11-19T14:29:05;20.27;;;6.63;;
9392;SDS011;4736;52.508;13.422;2023-11-19T14:32:09;18.83;;;6.53;;
9392;SDS011;4736;52.508;13.422;2023-11-19T14:35:13;20.47;;;6.77;;
9392;SDS011;4736;52.508;13.422;2023-11-19T14:38:16;17.67;;;7.27;;
9392;SDS011;4736;52.508;13.422;2023-11-19T14:41:22;22.27;;;8.67;;
9392;SDS011;4736;52.508;13.422;2023-11-19T14:44:25;16.87;;;7.23;;
9392;SDS011;4736;52.508;13.422;2023-11-19T14:47:28;14.37;;;6.63;;
9392;SDS011;4736;52.508;13.422;2023-11-19T14:50:33;21.90;;;7.30;;
9392;SDS011;4736;52.508;13.422;2023-11-19T14:53:36;16.23;;;6.53;;
9392;SDS011;4736;52.508;13.422;2023-11-19T14:56:39;22.50;;;7.10;;
9392;SDS011;4736;52.508;13.422;2023-11-19T14:59:43;15.37;;;6.00;;
9392;SDS011;4736;52.508;13.422;2023-11-19T15:02:47;22.10;;;6.87;;
9392;SDS011;4736;52.508;13.422;2023-11-19T15:05:52;19.33;;;6.27;;
9392;SDS011;4736;52.508;13.422;2023-11-19T15:08:55;19.87;;;6.73;;
9392;SDS011;4736;52.508;13.422;2023-11-19T15:12:00;21.73;;;6.87;;
9392;SDS011;4736;52.508;13.422;2023-11-19T15:15:03;17.50;;;6.17;;
9392;SDS011;4736;52.508;13.422;2023-11-19T15:18:07;21.97;;;7.00;;
9392;SDS011;4736;52.508;13.422;2023-11-19T15:21:13;13.27;;;5.70;;
9392;SDS011;4736;52.508;13.422;2023-11-19T15:24:16;17.50;;;5.63;;
9392;SDS011;4736;52.508;13.422;2023-11-19T15:27:20;23.87;;;6.50;;
9392;SDS011;4736;52.508;13.422;2023-11-19T15:30:23;19.80;;;7.07;;
9392;SDS011;4736;52.508;13.422;2023-11-19T15:33:27;22.00;;;7.03;;
9392;SDS011;4736;52.508;13.422;2023-11-19T15:36:31;16.37;;;5.90;;
9392;SDS011;4736;52.508;13.422;2023-11-19T15:39:37;18.43;;;6.33;;
9392;SDS011;4736;52.508;13.422;2023-11-19T15:42:40;16.80;;;6.53;;
9392;SDS011;4736;52.508;13.422;2023-11-19T15:45:44;12.93;;;6.23;;
9392;SDS011;4736;52.508;13.422;2023-11-19T15:48:47;14.63;;;5.90;;
9392;SDS011;4736;52.508;13.422;2023-11-19T15:51:51;14.03;;;6.70;;
9392;SDS011;4736;52.508;13.422;2023-11-19T15:54:55;24.00;;;7.30;;
9392;SDS011;4736;52.508;13.422;2023-11-19T15:57:58;22.77;;;7.47;;
9392;SDS011;4736;52.508;13.422;2023-11-19T16:01:02;23.57;;;7.10;;
9392;SDS011;4736;52.508;13.422;2023-11-19T16:04:06;22.73;;;6.87;;
9392;SDS011;4736;52.508;13.422;2023-11-19T16:07:12;17.60;;;6.30;;
9392;SDS011;4736;52.508;13.422;2023-11-19T16:10:15;22.53;;;6.40;;
9392;SDS011;4736;52.508;13.422;2023-11-19T16:13:25;22.50;;;7.00;;
9392;SDS011;4736;52.508;13.422;2023-11-19T16:16:28;25.20;;;7.00;;
9392;SDS011;4736;52.508;13.422;2023-11-19T16:19:31;23.83;;;6.87;;
9392;SDS011;4736;52.508;13.422;2023-11-19T16:22:36;22.47;;;6.87;;
9392;SDS011;4736;52.508;13.422;2023-11-19T16:25:40;21.43;;;7.67;;
9392;SDS011;4736;52.508;13.422;2023-11-19T16:28:43;18.57;;;7.43;;
9392;SDS011;4736;52.508;13.422;2023-11-19T16:31:46;18.57;;;6.43;;
9392;SDS011;4736;52.508;13.422;2023-11-19T16:34:50;18.10;;;6.20;;
9392;SDS011;4736;52.508;13.422;2023-11-19T16:37:55;21.60;;;7.60;;
9392;SDS011;4736;52.508;13.422;2023-11-19T16:41:00;16.77;;;6.10;;
9392;SDS011;4736;52.508;13.422;2023-11-19T16:44:05;16.20;;;7.20;;
9392;SDS011;4736;52.508;13.422;2023-11-19T16:47:10;15.97;;;6.70;;
9392;SDS011;4736;52.508;13.422;2023-11-19T16:50:13;18.70;;;6.97;;
9392;SDS011;4736;52.508;13.422;2023-11-19T16:53:19;21.63;;;6.97;;
9392;SDS011;4736;52.508;13.422;2023-11-19T16:56:22;18.67;;;7.03;;
9392;SDS011;4736;52.508;13.422;2023-11-19T16:59:25;17.20;;;7.00;;
9392;SDS011;4736;52.508;13.422;2023-11-19T17:02:29;24.50;;;7.63;;
9392;SDS011;4736;52.508;13.422;2023-11-19T17:05:50;18.90;;;7.53;;
9392;SDS011;4736;52.508;13.422;2023-11-19T17:08:55;16.03;;;7.63;;
9392;SDS011;4736;52.508;13.422;2023-11-19T17:11:58;21.07;;;7.23;;
9392;SDS011;4736;52.508;13.422;2023-11-19T17:15:01;13.57;;;7.97;;
9392;SDS011;4736;52.508;13.422;2023-11-19T17:18:06;28.87;;;8.67;;
9392;SDS011;4736;52.508;13.422;2023-11-19T17:21:09;25.13;;;8.43;;
9392;SDS011;4736;52.508;13.422;2023-11-19T17:24:13;21.97;;;8.40;;
9392;SDS011;4736;52.508;13.422;2023-11-19T17:27:16;18.37;;;7.70;;
9392;SDS011;4736;52.508;13.422;2023-11-19T17:30:19;23.37;;;8.53;;
9392;SDS011;4736;52.508;13.422;2023-11-19T17:33:23;18.33;;;7.80;;
9392;SDS011;4736;52.508;13.422;2023-11-19T17:36:27;26.03;;;9.10;;
9392;SDS011;4736;52.508;13.422;2023-11-19T17:39:33;18.40;;;8.00;;
9392;SDS011;4736;52.508;13.422;2023-11-19T17:42:36;19.83;;;7.37;;
9392;SDS011;4736;52.508;13.422;2023-11-19T17:45:39;21.93;;;8.33;;
9392;SDS011;4736;52.508;13.422;2023-11-19T17:48:42;22.60;;;8.50;;
9392;SDS011;4736;52.508;13.422;2023-11-19T17:51:45;22.10;;;8.23;;
9392;SDS011;4736;52.508;13.422;2023-11-19T17:54:50;21.83;;;8.10;;
9392;SDS011;4736;52.508;13.422;2023-11-19T17:57:53;23.20;;;8.70;;
9392;SDS011;4736;52.508;13.422;2023-11-19T18:01:00;15.97;;;7.97;;
9392;SDS011;4736;52.508;13.422;2023-11-19T18:04:05;18.70;;;7.73;;
9392;SDS011;4736;52.508;13.422;2023-11-19T18:07:08;14.47;;;6.83;;
9392;SDS011;4736;52.508;13.422;2023-11-19T18:10:13;16.73;;;6.93;;
9392;SDS011;4736;52.508;13.422;2023-11-19T18:13:17;15.27;;;6.40;;
9392;SDS011;4736;52.508;13.422;2023-11-19T18:16:21;17.83;;;6.47;;
9392;SDS011;4736;52.508;13.422;2023-11-19T18:19:25;11.67;;;5.97;;
9392;SDS011;4736;52.508;13.422;2023-11-19T18:22:28;12.43;;;5.83;;
9392;SDS011;4736;52.508;13.422;2023-11-19T18:25:33;16.23;;;5.90;;
9392;SDS011;4736;52.508;13.422;2023-11-19T18:28:36;11.30;;;5.60;;
9392;SDS011;4736;52.508;13.422;2023-11-19T18:31:41;18.00;;;7.00;;
9392;SDS011;4736;52.508;13.422;2023-11-19T18:34:44;11.93;;;5.87;;
9392;SDS011;4736;52.508;13.422;2023-11-19T18:37:47;17.47;;;6.70;;